Time;durP1;ratioP1;P1;durP2;ratioP2;P2;SDS_P1;SDS_P2;PMS_P1;PMS_P2;Temp;Humidity;BMP_temperature;BMP_pressure;BME280_temperature;BME280_humidity;BME280_pressure;Samples;Min_cycle;Max_cycle;Signal;HPM_P1;HPM_P2
2020/12/12 00:02:15;;;;;;;71.33;30.00;;;;;;;0.51;86.81;99615.59;5073098;28;20075;-68
2020/12/12 00:04:42;;;;;;;81.90;31.02;;;;;;;0.46;87.10;99616.94;5072065;28;20042;-69
2020/12/12 00:07:08;;;;;;;76.05;32.83;;;;;;;0.52;87.36;99611.19;5072679;28;20470;-69
2020/12/12 00:09:34;;;;;;;81.88;31.90;;;;;;;0.53;87.05;99612.84;5072095;28;20032;-68
2020/12/12 00:12:00;;;;;;;83.00;32.55;;;;;;;0.58;86.98;99614.13;5071887;28;20101;-69
2020/12/12 00:14:25;;;;;;;76.05;29.90;;;;;;;0.52;86.94;99603.31;5071971;28;20039;-70
2020/12/12 00:16:52;;;;;;;77.63;29.13;;;;;;;0.56;87.32;99589.81;5072617;28;20484;-70
2020/12/12 00:19:17;;;;;;;80.28;30.80;;;;;;;0.52;87.16;99588.38;5072594;28;20037;-70
2020/12/12 00:21:42;;;;;;;80.70;32.37;;;;;;;0.54;86.94;99590.84;5072750;28;20369;-70
2020/12/12 00:24:08;;;;;;;69.80;29.43;;;;;;;0.50;86.80;99594.72;5055098;28;20335;-70
2020/12/12 00:26:33;;;;;;;78.67;33.73;;;;;;;0.49;87.09;99590.41;5071512;28;20484;-70
2020/12/12 00:28:58;;;;;;;76.30;28.33;;;;;;;0.52;86.93;99588.38;5071811;28;20450;-70
2020/12/12 00:31:23;;;;;;;82.43;32.00;;;;;;;0.55;87.07;99592.53;5072458;28;20123;-70
2020/12/12 00:33:49;;;;;;;71.83;28.63;;;;;;;0.62;86.63;99596.31;5072615;28;20037;-70
2020/12/12 00:36:15;;;;;;;69.33;30.57;;;;;;;0.59;86.61;99593.97;5072164;28;20143;-70
2020/12/12 00:38:40;;;;;;;81.22;33.35;;;;;;;0.58;86.37;99592.28;5071506;28;20506;-70
2020/12/12 00:41:06;;;;;;;72.17;28.60;;;;;;;0.58;86.49;99581.78;5072333;28;20083;-70
2020/12/12 00:43:31;;;;;;;75.97;29.17;;;;;;;0.62;86.49;99588.44;5071325;28;20336;-70
2020/12/12 00:45:57;;;;;;;70.30;29.13;;;;;;;0.66;86.28;99591.66;5071964;28;20058;-70
2020/12/12 00:48:23;;;;;;;87.70;31.60;;;;;;;0.63;86.56;99590.09;5071217;28;20075;-70
2020/12/12 00:50:48;;;;;;;;;;;;;;;0.58;86.40;99587.03;5072689;28;20147;-70
2020/12/12 00:53:14;;;;;;;;;;;;;;;0.63;86.46;99590.09;5071673;28;20023;-70
2020/12/12 00:55:41;;;;;;;77.97;31.10;;;;;;;0.69;86.79;99583.53;5069949;28;19946;-70
2020/12/12 00:58:06;;;;;;;85.70;32.53;;;;;;;0.67;86.58;99586.25;5069683;28;20032;-70
2020/12/12 01:00:33;;;;;;;73.60;29.55;;;;;;;0.60;86.76;99582.47;5071789;28;20033;-70
2020/12/12 01:02:59;;;;;;;;;;;;;;;0.58;86.53;99592.28;5070102;28;20038;-70
2020/12/12 01:05:24;;;;;;;71.32;30.55;;;;;;;0.53;86.60;99589.19;5070325;28;19924;-70
2020/12/12 01:07:50;;;;;;;71.07;29.70;;;;;;;0.55;86.51;99592.53;5070758;28;20040;-70
2020/12/12 01:10:15;;;;;;;71.93;28.53;;;;;;;0.62;86.67;99593.69;5071923;28;20092;-70
2020/12/12 01:12:40;;;;;;;72.87;31.90;;;;;;;0.58;86.92;99587.03;5069872;28;20044;-70
2020/12/12 01:15:06;;;;;;;70.47;34.07;;;;;;;0.66;86.68;99587.25;5071538;28;20047;-70
2020/12/12 01:17:34;;;;;;;73.87;32.50;;;;;;;0.59;86.51;99588.72;5071378;28;20144;-70
2020/12/12 01:19:59;;;;;;;74.63;31.08;;;;;;;0.51;86.58;99591.13;5070592;28;20072;-70
2020/12/12 01:22:24;;;;;;;76.03;32.77;;;;;;;0.55;86.80;99592.53;5058135;28;20073;-70
2020/12/12 01:24:50;;;;;;;75.03;30.13;;;;;;;0.60;86.53;99595.63;5058581;28;20078;-70
2020/12/12 01:27:17;;;;;;;75.03;30.00;;;;;;;0.61;86.34;99590.25;5070291;28;20044;-70
2020/12/12 01:29:42;;;;;;;78.60;31.77;;;;;;;0.59;86.50;99593.97;5071554;28;20032;-70
2020/12/12 01:32:08;;;;;;;76.07;28.93;;;;;;;0.62;86.40;99589.28;5042958;28;20094;-70
2020/12/12 01:34:33;;;;;;;67.30;28.90;;;;;;;0.64;86.08;99597.03;5051323;28;20127;-70
2020/12/12 01:36:58;;;;;;;78.07;29.70;;;;;;;0.57;86.56;99593.25;5033537;28;20040;-70
2020/12/12 01:39:24;;;;;;;71.27;30.50;;;;;;;0.61;86.64;99594.69;5050395;28;20029;-70
2020/12/12 01:41:54;;;;;;;83.33;30.70;;;;;;;0.62;86.05;99577.94;5058982;28;20044;-70
2020/12/12 01:44:19;;;;;;;76.18;29.70;;;;;;;0.54;86.25;99589.09;5071462;28;20085;-70
2020/12/12 01:46:47;;;;;;;74.00;30.27;;;;;;;0.60;86.54;99591.19;5053316;28;20588;-70
2020/12/12 01:49:13;;;;;;;81.63;29.58;;;;;;;0.63;86.64;99596.22;5070895;28;20493;-70
2020/12/12 01:51:39;;;;;;;87.68;32.45;;;;;;;0.60;86.52;99591.19;5069611;28;20055;-70
2020/12/12 01:54:04;;;;;;;71.80;30.13;;;;;;;0.58;86.37;99593.09;5070385;28;20066;-70
2020/12/12 01:56:30;;;;;;;79.28;32.17;;;;;;;0.62;86.56;99585.81;5070865;28;20036;-70
2020/12/12 01:58:55;;;;;;;80.80;32.57;;;;;;;0.65;86.48;99582.94;5071112;28;20045;-70
2020/12/12 02:01:22;;;;;;;75.80;32.97;;;;;;;0.61;86.29;99592.03;5053173;28;20044;-70
2020/12/12 02:03:49;;;;;;;81.82;29.98;;;;;;;0.61;86.48;99585.00;5033505;28;20040;-70
2020/12/12 02:06:17;;;;;;;72.72;31.13;;;;;;;0.67;86.56;99578.38;5049948;28;20040;-70
2020/12/12 02:08:42;;;;;;;73.78;30.35;;;;;;;0.62;86.39;99585.81;5050071;28;20469;-70
2020/12/12 02:11:11;;;;;;;73.10;31.07;;;;;;;0.68;86.47;99582.69;5051253;28;20072;-70
2020/12/12 02:13:38;;;;;;;76.90;31.83;;;;;;;0.71;86.43;99582.44;5051013;28;20041;-70
2020/12/12 02:16:03;;;;;;;70.82;28.65;;;;;;;0.76;86.06;99582.88;5033898;28;20052;-70
2020/12/12 02:18:28;;;;;;;74.83;30.93;;;;;;;0.67;86.23;99570.50;5054039;28;20457;-70
2020/12/12 02:20:59;;;;;;;75.60;29.77;;;;;;;0.76;86.54;99585.50;5068286;28;20048;-70
2020/12/12 02:23:25;;;;;;;71.28;31.20;;;;;;;0.76;86.54;99577.63;5074979;28;20097;-70
2020/12/12 02:25:51;;;;;;;73.15;30.35;;;;;;;0.76;86.79;99579.41;5073717;28;20048;-70
2020/12/12 02:28:20;;;;;;;81.47;32.22;;;;;;;0.83;86.78;99578.78;5075033;28;20067;-70
2020/12/12 02:30:45;;;;;;;86.82;33.88;;;;;;;0.76;86.69;99585.50;5072103;28;20047;-70
2020/12/12 02:33:11;;;;;;;89.32;36.05;;;;;;;0.71;86.97;99577.19;5074930;28;20036;-70
2020/12/12 02:35:37;;;;;;;89.33;33.97;;;;;;;0.79;86.80;99577.34;5071904;28;20067;-70
2020/12/12 02:38:03;;;;;;;91.20;35.42;;;;;;;0.76;86.78;99582.03;5073903;28;20103;-70
2020/12/12 02:40:28;;;;;;;80.18;31.38;;;;;;;0.74;87.10;99586.59;5072654;28;20044;-70
2020/12/12 02:42:53;;;;;;;89.10;34.35;;;;;;;0.72;86.96;99584.09;5074774;28;20036;-70
2020/12/12 02:45:19;;;;;;;85.07;32.87;;;;;;;0.79;87.07;99574.72;5074551;28;20024;-70
2020/12/12 02:47:46;;;;;;;87.63;34.63;;;;;;;0.72;86.86;99581.44;5074279;28;20091;-70
2020/12/12 02:50:13;;;;;;;94.30;36.55;;;;;;;0.69;86.93;99584.34;5066668;28;20033;-70
2020/12/12 02:52:40;;;;;;;88.50;33.22;;;;;;;0.68;87.28;99576.59;5054440;28;20029;-70
2020/12/12 02:55:07;;;;;;;84.25;33.38;;;;;;;0.68;87.08;99573.97;5053470;28;20040;-70
2020/12/12 02:57:33;;;;;;;88.22;36.50;;;;;;;0.76;87.20;99582.03;5053960;28;20052;-70
2020/12/12 03:00:00;;;;;;;79.45;32.63;;;;;;;0.67;87.14;99578.38;5055186;28;20037;-70
2020/12/12 03:02:25;;;;;;;78.97;32.15;;;;;;;0.70;87.28;99586.00;5054347;28;20381;-70
2020/12/12 03:04:50;;;;;;;82.43;32.87;;;;;;;0.69;87.11;99581.72;5054268;28;20043;-70
2020/12/12 03:07:16;;;;;;;86.60;33.93;;;;;;;0.75;87.41;99583.00;5053870;28;20043;-70
2020/12/12 03:09:41;;;;;;;85.93;33.43;;;;;;;0.77;87.33;99573.19;5068752;28;20037;-70
2020/12/12 03:12:06;;;;;;;87.53;31.07;;;;;;;0.83;87.21;99565.63;5074105;28;20082;-71
2020/12/12 03:14:32;;;;;;;84.83;32.47;;;;;;;0.69;87.32;99565.97;5051358;28;20036;-70
2020/12/12 03:16:57;;;;;;;86.13;32.93;;;;;;;0.69;87.13;99568.59;5072795;28;20518;-70
2020/12/12 03:19:23;;;;;;;88.80;30.97;;;;;;;0.76;87.32;99574.16;5072978;28;20396;-70
2020/12/12 03:21:48;;;;;;;85.70;33.20;;;;;;;0.75;87.49;99575.97;5074002;28;20036;-70
2020/12/12 03:24:14;;;;;;;91.30;35.28;;;;;;;0.72;87.06;99559.63;5072965;28;20302;-70
2020/12/12 03:26:39;;;;;;;86.40;31.10;;;;;;;0.70;87.25;99570.25;5055395;28;20036;-70
2020/12/12 03:29:04;;;;;;;83.50;32.13;;;;;;;0.66;87.40;99568.84;5072037;28;20366;-70
2020/12/12 03:31:29;;;;;;;78.33;30.43;;;;;;;0.68;87.45;99574.81;5073769;28;20450;-70
2020/12/12 03:33:55;;;;;;;79.23;31.33;;;;;;;0.72;87.19;99575.38;5073798;28;20400;-70
2020/12/12 03:36:20;;;;;;;86.03;32.70;;;;;;;0.72;87.12;99576.19;5072497;28;20412;-70
2020/12/12 03:38:45;;;;;;;79.77;32.13;;;;;;;0.68;87.58;99569.56;5070676;28;20422;-70
2020/12/12 03:41:11;;;;;;;79.77;32.47;;;;;;;0.70;87.21;99572.03;5073673;28;20686;-70
2020/12/12 03:43:36;;;;;;;83.03;31.20;;;;;;;0.73;87.13;99577.88;5073570;28;20365;-70
2020/12/12 03:46:02;;;;;;;139.87;32.87;;;;;;;0.69;87.06;99575.63;5073211;28;20355;-70
2020/12/12 03:48:28;;;;;;;81.60;31.58;;;;;;;0.72;87.53;99575.38;5071527;28;20369;-70
2020/12/12 03:50:53;;;;;;;90.50;33.50;;;;;;;0.75;87.48;99583.84;5073364;28;20040;-70
2020/12/12 03:53:18;;;;;;;87.00;31.93;;;;;;;0.67;87.67;99574.94;5055763;28;20458;-70
2020/12/12 03:55:44;;;;;;;87.57;35.27;;;;;;;0.74;87.59;99589.22;5055389;28;20822;-70
2020/12/12 03:58:09;;;;;;;82.53;31.33;;;;;;;0.65;87.21;99580.31;5053332;28;20044;-69
2020/12/12 04:00:34;;;;;;;84.90;34.37;;;;;;;0.65;87.16;99580.31;5053164;28;20052;-70
2020/12/12 04:03:00;;;;;;;92.70;37.57;;;;;;;0.63;87.09;99596.22;5053034;28;20041;-70
2020/12/12 04:05:25;;;;;;;83.77;33.23;;;;;;;0.60;87.06;99585.94;5053206;28;20044;-70
2020/12/12 04:07:50;;;;;;;90.33;36.90;;;;;;;0.64;86.76;99599.66;5051733;28;20037;-70
2020/12/12 04:10:16;;;;;;;92.10;34.43;;;;;;;0.60;87.32;99600.88;5071733;28;20033;-70
2020/12/12 04:12:41;;;;;;;88.60;34.87;;;;;;;0.55;86.88;99600.41;5071870;28;20044;-70
2020/12/12 04:15:06;;;;;;;88.17;36.07;;;;;;;0.51;86.67;99599.00;5073093;28;20118;-70
2020/12/12 04:17:32;;;;;;;83.40;34.30;;;;;;;0.47;86.85;99608.06;5072666;28;20040;-70
2020/12/12 04:19:57;;;;;;;87.37;35.27;;;;;;;0.50;86.60;99602.59;5055430;28;20037;-70
2020/12/12 04:22:22;;;;;;;81.73;33.10;;;;;;;0.47;86.92;99600.19;5052941;28;20033;-70
2020/12/12 04:24:48;;;;;;;88.43;36.90;;;;;;;0.46;86.75;99595.91;5051776;28;20098;-70
2020/12/12 04:27:13;;;;;;;94.43;35.00;;;;;;;0.44;87.04;99592.59;5051176;28;20094;-69
2020/12/12 04:29:38;;;;;;;94.00;36.28;;;;;;;0.41;86.92;99589.25;5052485;28;20032;-69
2020/12/12 04:32:04;;;;;;;106.73;39.43;;;;;;;0.29;86.98;99597.31;5052628;28;20132;-69
2020/12/12 04:34:30;;;;;;;94.05;35.78;;;;;;;0.25;87.25;99595.88;5052563;28;20049;-69
2020/12/12 04:36:55;;;;;;;93.50;35.95;;;;;;;0.25;87.07;99603.75;5052203;28;20040;-70
2020/12/12 04:39:21;;;;;;;87.23;33.77;;;;;;;0.19;87.28;99597.22;5062019;28;20382;-69
2020/12/12 04:41:47;;;;;;;104.72;35.88;;;;;;;0.19;87.13;99592.81;5071353;28;20036;-69
2020/12/12 04:44:12;;;;;;;;;;;;;;;0.21;87.36;99587.41;5072827;28;20047;-69
2020/12/12 04:46:39;;;;;;;87.75;33.33;;;;;;;0.19;87.31;99586.72;5071944;28;19912;-69
2020/12/12 04:49:06;;;;;;;96.68;33.50;;;;;;;0.17;87.10;99578.97;5063857;28;20032;-69
2020/12/12 04:51:32;;;;;;;91.95;33.60;;;;;;;0.17;87.44;99593.88;5052248;28;20048;-69
2020/12/12 04:53:57;;;;;;;99.27;37.03;;;;;;;0.20;87.58;99585.75;5051500;28;20037;-69
2020/12/12 04:56:25;;;;;;;92.50;34.05;;;;;;;0.20;87.44;99596.25;5051764;28;20693;-69
2020/12/12 04:58:51;;;;;;;87.68;35.85;;;;;;;0.24;87.20;99595.06;5040334;28;20047;-69
2020/12/12 05:01:18;;;;;;;94.15;36.30;;;;;;;0.26;87.35;99608.91;5072019;28;20071;-69
2020/12/12 05:03:44;;;;;;;95.90;33.33;;;;;;;0.20;87.29;99588.38;5071773;28;20047;-69
2020/12/12 05:06:10;;;;;;;;;;;;;;;0.23;87.35;99596.00;5071194;28;20472;-69
2020/12/12 05:08:35;;;;;;;101.88;35.60;;;;;;;0.20;87.65;99599.72;5069246;28;19916;-69
2020/12/12 05:11:02;;;;;;;98.80;35.90;;;;;;;0.23;87.35;99606.50;5064036;28;20500;-69
2020/12/12 05:13:28;;;;;;;105.88;39.65;;;;;;;0.18;87.31;99598.16;5034212;28;20045;-69
2020/12/12 05:15:54;;;;;;;96.65;36.70;;;;;;;0.26;87.38;99601.00;5051522;28;20040;-69
2020/12/12 05:18:21;;;;;;;87.25;36.75;;;;;;;0.18;87.36;99600.78;5035413;28;20066;-69
2020/12/12 05:20:47;;;;;;;96.43;35.22;;;;;;;0.15;87.40;99608.91;5071673;28;20036;-69
2020/12/12 05:23:18;;;;;;;83.82;33.05;;;;;;;0.07;87.24;99604.28;5070686;28;20038;-69
2020/12/12 05:25:45;;;;;;;81.78;32.78;;;;;;;0.16;87.19;99610.56;5070135;28;20041;-69
2020/12/12 05:28:13;;;;;;;91.60;37.63;;;;;;;0.17;87.03;99615.72;5071300;28;20072;-69
2020/12/12 05:30:39;;;;;;;102.18;36.83;;;;;;;0.12;87.47;99603.94;5050490;28;20037;-69
2020/12/12 05:33:07;;;;;;;89.38;36.35;;;;;;;0.17;87.38;99610.47;5051521;28;20106;-69
2020/12/12 05:35:33;;;;;;;84.90;35.85;;;;;;;0.17;87.12;99614.88;5051242;28;20037;-69
2020/12/12 05:38:03;;;;;;;98.40;35.20;;;;;;;0.18;87.38;99614.75;5051127;28;20037;-69
2020/12/12 05:40:28;;;;;;;82.53;33.90;;;;;;;0.23;86.84;99619.63;5069564;28;20128;-70
2020/12/12 05:42:53;;;;;;;93.70;33.50;;;;;;;0.25;86.72;99617.72;5057383;28;20561;-69
2020/12/12 05:45:19;;;;;;;89.47;35.67;;;;;;;0.23;86.56;99601.25;5051127;28;20080;-70
2020/12/12 05:47:45;;;;;;;96.22;38.45;;;;;;;0.05;86.84;99615.84;5049258;28;20371;-69
2020/12/12 05:50:11;;;;;;;96.10;33.65;;;;;;;0.05;86.99;99616.69;5065084;28;20040;-69
2020/12/12 05:52:39;;;;;;;90.13;32.05;;;;;;;0.09;87.17;99625.16;5071255;28;20044;-70
2020/12/12 05:55:05;;;;;;;93.88;35.10;;;;;;;0.02;87.50;99624.81;5071291;28;20054;-69
2020/12/12 05:57:31;;;;;;;84.25;32.30;;;;;;;0.05;87.56;99623.72;5070047;28;20052;-69
2020/12/12 05:59:58;;;;;;;92.75;35.90;;;;;;;0.02;87.54;99623.97;5056890;28;20029;-70
2020/12/12 06:02:24;;;;;;;87.85;33.10;;;;;;;0.01;87.72;99624.94;5051087;28;20061;-69
2020/12/12 06:04:52;;;;;;;98.60;35.35;;;;;;;0.04;87.76;99629.94;5050974;28;20045;-69
2020/12/12 06:07:28;;;;;;;98.25;34.78;;;;;;;0.07;87.73;99627.06;5050638;28;20048;-69
2020/12/12 06:10:13;;;;;;;101.90;36.45;;;;;;;-0.01;87.83;99633.75;5063729;28;20032;-70
2020/12/12 06:12:39;;;;;;;;;;;;;;;0.00;88.12;99632.00;5071242;28;20044;-69
2020/12/12 06:15:06;;;;;;;;;;;;;;;0.08;88.09;99639.25;5070562;28;19916;-70
2020/12/12 06:18:04;;;;;;;108.80;38.92;;;;;;;0.10;88.07;99638.16;5070752;28;19939;-70
2020/12/12 06:20:30;;;;;;;113.05;38.40;;;;;;;0.07;87.91;99640.19;5051793;28;20099;-69
2020/12/12 06:22:57;;;;;;;122.88;36.78;;;;;;;0.04;87.93;99643.88;5051046;28;20029;-70
2020/12/12 06:25:24;;;;;;;119.07;37.42;;;;;;;0.05;88.01;99639.47;5049994;28;20048;-70
2020/12/12 06:27:54;;;;;;;119.18;40.95;;;;;;;0.11;88.11;99644.25;5050703;28;20455;-69
2020/12/12 06:30:26;;;;;;;101.82;37.58;;;;;;;0.08;87.94;99637.44;5050893;28;20093;-69
2020/12/12 06:32:59;;;;;;;112.80;39.45;;;;;;;0.15;87.84;99635.16;5050908;28;20502;-69
2020/12/12 06:35:31;;;;;;;101.60;38.65;;;;;;;0.12;87.88;99640.69;5050848;28;20044;-70
2020/12/12 06:37:57;;;;;;;117.13;37.33;;;;;;;0.13;87.71;99643.16;5050624;28;20037;-69
2020/12/12 06:40:39;;;;;;;114.20;40.65;;;;;;;0.06;87.96;99631.47;5066109;28;20044;-69
2020/12/12 06:43:34;;;;;;;105.25;38.25;;;;;;;0.14;87.69;99646.59;5069855;28;20585;-69
2020/12/12 06:46:05;;;;;;;108.25;38.55;;;;;;;0.12;87.55;99648.53;5070646;28;20103;-69
2020/12/12 06:48:31;;;;;;;111.30;37.83;;;;;;;0.15;87.73;99643.88;5068550;28;20067;-69
2020/12/12 06:50:59;;;;;;;111.07;39.42;;;;;;;0.20;87.91;99649.59;5049660;28;20366;-69
2020/12/12 06:53:29;;;;;;;109.07;39.15;;;;;;;0.16;87.74;99649.94;5049596;28;20134;-69
2020/12/12 06:56:06;;;;;;;122.47;41.33;;;;;;;0.87;90.71;99650.31;5032833;28;20041;-69
2020/12/12 06:58:32;;;;;;;103.82;39.10;;;;;;;0.70;86.65;99648.22;5049836;28;20025;-70
2020/12/12 07:00:57;;;;;;;102.25;36.97;;;;;;;0.56;86.68;99649.34;5062914;28;20378;-69
2020/12/12 07:03:22;;;;;;;98.13;37.07;;;;;;;0.40;86.86;99640.13;5073125;28;20095;-69
2020/12/12 07:05:48;;;;;;;103.20;41.80;;;;;;;0.42;87.06;99650.47;5073973;28;20040;-69
2020/12/12 07:08:13;;;;;;;110.70;39.20;;;;;;;0.44;87.18;99651.19;5073269;28;20045;-70
2020/12/12 07:10:42;;;;;;;107.88;37.10;;;;;;;0.33;87.13;99652.06;5056566;28;20287;-69
2020/12/12 07:13:08;;;;;;;106.05;36.40;;;;;;;0.30;87.28;99641.78;5054078;28;20036;-69
2020/12/12 07:15:36;;;;;;;114.32;39.70;;;;;;;0.27;87.30;99649.09;5053728;28;20043;-69
2020/12/12 07:18:09;;;;;;;103.82;39.58;;;;;;;0.24;87.42;99647.56;5054975;28;20037;-69
2020/12/12 07:20:37;;;;;;;97.40;38.30;;;;;;;0.31;87.33;99658.41;5052913;28;20041;-70
2020/12/12 07:23:03;;;;;;;114.82;38.28;;;;;;;0.33;87.42;99662.56;5053063;28;20041;-69
2020/12/12 07:25:30;;;;;;;113.07;40.15;;;;;;;0.31;87.27;99655.78;5053759;28;20462;-69
2020/12/12 07:27:55;;;;;;;106.22;38.33;;;;;;;0.41;87.45;99667.19;5061285;28;20112;-69
2020/12/12 07:30:21;;;;;;;112.87;39.30;;;;;;;0.39;87.38;99656.81;5072944;28;20116;-69
2020/12/12 07:32:46;;;;;;;102.33;38.13;;;;;;;0.36;87.35;99657.06;5073674;28;20044;-69
2020/12/12 07:35:11;;;;;;;91.43;35.50;;;;;;;0.41;87.17;99660.16;5072761;28;20081;-69
2020/12/12 07:37:37;;;;;;;99.07;33.43;;;;;;;0.48;86.93;99655.25;5066258;28;20473;-70
2020/12/12 07:40:03;;;;;;;105.77;41.40;;;;;;;0.43;86.97;99662.66;5035860;28;20462;-70
2020/12/12 07:42:32;;;;;;;;;;;;;;;0.48;87.33;99670.16;5053089;28;20158;-69
2020/12/12 07:45:07;;;;;;;108.53;43.55;;;;;;;0.51;87.17;99669.91;5035977;28;20254;-70
2020/12/12 07:47:32;;;;;;;106.57;40.75;;;;;;;0.56;87.30;99673.84;5057145;28;20040;-70
2020/12/12 07:50:05;;;;;;;116.57;40.53;;;;;;;0.58;87.15;99684.22;5072524;28;20037;-70
2020/12/12 07:52:31;;;;;;;103.82;38.03;;;;;;;0.53;87.20;99681.13;5072417;28;20040;-70
2020/12/12 07:55:07;;;;;;;107.38;37.70;;;;;;;0.65;87.19;99688.00;5073178;28;20097;-70
2020/12/12 07:57:36;;;;;;;113.20;41.85;;;;;;;0.60;86.78;99684.94;5053557;28;20378;-70
2020/12/12 08:00:08;;;;;;;108.72;39.70;;;;;;;0.59;87.17;99685.91;5073111;28;20036;-70
2020/12/12 08:02:37;;;;;;;;;;;;;;;0.58;87.14;99690.28;5073665;28;20036;-69
2020/12/12 08:05:07;;;;;;;106.55;37.53;;;;;;;0.55;87.13;99690.56;5051740;28;20364;-70
2020/12/12 08:07:34;;;;;;;113.20;38.83;;;;;;;0.65;87.13;99687.19;5052554;28;20374;-70
2020/12/12 08:10:00;;;;;;;104.75;38.53;;;;;;;0.68;86.73;99698.28;5070035;28;20028;-69
2020/12/12 08:12:29;;;;;;;;;;;;;;;0.68;86.76;99693.03;5070692;28;20040;-70
2020/12/12 08:14:58;;;;;;;97.68;38.33;;;;;;;0.63;87.01;99701.28;5071173;28;19923;-70
2020/12/12 08:17:28;;;;;;;105.32;37.22;;;;;;;0.65;86.97;99698.50;5070427;28;20040;-70
2020/12/12 08:19:54;;;;;;;111.05;41.17;;;;;;;0.76;86.89;99695.84;5062709;28;20037;-70
2020/12/12 08:22:21;;;;;;;109.35;41.30;;;;;;;0.82;86.66;99698.00;5050359;28;20052;-70
2020/12/12 08:24:47;;;;;;;109.63;38.13;;;;;;;0.88;86.58;99699.28;5050562;28;20339;-70
2020/12/12 08:27:20;;;;;;;95.63;37.67;;;;;;;0.78;86.49;99704.44;5052457;28;20120;-69
2020/12/12 08:29:51;;;;;;;117.47;40.65;;;;;;;0.84;86.36;99711.84;5053810;28;20040;-69
2020/12/12 08:32:40;;;;;;;107.32;40.78;;;;;;;0.94;86.31;99721.59;5052541;28;20036;-69
2020/12/12 08:35:24;;;;;;;119.18;47.45;;;;;;;0.92;86.38;99721.72;5052645;28;20047;-69
2020/12/12 08:38:01;;;;;;;101.63;39.83;;;;;;;0.86;86.23;99721.38;5052365;28;20060;-69
2020/12/12 08:40:33;;;;;;;110.20;40.78;;;;;;;0.93;86.46;99717.28;5063809;28;20457;-70
2020/12/12 08:43:08;;;;;;;94.20;37.95;;;;;;;0.98;86.26;99723.84;5072390;28;20033;-70
2020/12/12 08:45:39;;;;;;;116.03;41.63;;;;;;;0.97;86.23;99723.97;5071193;28;20032;-69
2020/12/12 08:48:13;;;;;;;108.05;38.50;;;;;;;0.98;86.20;99717.75;5072152;28;20075;-70
2020/12/12 08:50:49;;;;;;;119.00;43.30;;;;;;;0.95;86.43;99721.47;5059040;28;20032;-69
2020/12/12 08:53:42;;;;;;;109.03;37.83;;;;;;;1.03;86.43;99724.31;5052177;28;20055;-69
2020/12/12 08:56:10;;;;;;;101.97;38.33;;;;;;;1.11;86.26;99728.91;5049163;28;20139;-69
2020/12/12 08:58:55;;;;;;;113.05;44.45;;;;;;;1.12;85.80;99727.94;5051085;28;20039;-69
2020/12/12 09:01:35;;;;;;;113.65;41.63;;;;;;;1.10;86.07;99734.28;5070634;28;20052;-70
2020/12/12 09:04:10;;;;;;;112.72;47.25;;;;;;;1.10;86.13;99735.16;5071867;28;20043;-70
2020/12/12 09:06:41;;;;;;;124.97;44.60;;;;;;;1.15;85.90;99727.72;5071619;28;20051;-70
2020/12/12 09:09:18;;;;;;;114.55;40.72;;;;;;;1.14;85.61;99738.34;5053835;28;20082;-69
2020/12/12 09:11:48;;;;;;;114.13;44.92;;;;;;;1.10;85.95;99740.41;5067497;28;20048;-69
2020/12/12 09:14:15;;;;;;;107.82;42.45;;;;;;;1.23;85.97;99735.78;5051853;28;20079;-70
2020/12/12 09:16:50;;;;;;;104.32;39.70;;;;;;;1.27;85.36;99746.91;5050573;28;20686;-70
2020/12/12 09:19:15;;;;;;;102.93;37.35;;;;;;;1.27;85.37;99739.84;5051609;28;20045;-70
2020/12/12 09:21:41;;;;;;;121.53;45.63;;;;;;;1.26;85.57;99738.19;5065681;28;20061;-69
2020/12/12 09:24:06;;;;;;;109.33;39.80;;;;;;;1.21;85.31;99742.97;5051615;28;20083;-69
2020/12/12 09:26:32;;;;;;;104.80;38.77;;;;;;;1.13;86.11;99737.53;5050933;28;20476;-69
2020/12/12 09:28:57;;;;;;;109.60;40.50;;;;;;;1.07;86.59;99738.00;5051617;28;20035;-70
2020/12/12 09:31:24;;;;;;;109.87;41.60;;;;;;;1.10;87.03;99740.41;5050384;28;20108;-70
2020/12/12 09:33:49;;;;;;;105.85;38.03;;;;;;;1.08;87.17;99742.31;5033829;28;20044;-70
2020/12/12 09:36:15;;;;;;;104.45;41.95;;;;;;;1.10;86.69;99743.03;5050232;28;20473;-70
2020/12/12 09:38:40;;;;;;;107.28;38.03;;;;;;;1.18;86.85;99747.66;5063095;28;20047;-70
2020/12/12 09:41:06;;;;;;;94.53;37.63;;;;;;;1.16;86.44;99747.78;5062830;28;20074;-69
2020/12/12 09:43:32;;;;;;;108.72;43.58;;;;;;;1.11;86.39;99747.31;5069161;28;20044;-69
2020/12/12 09:45:57;;;;;;;107.70;42.55;;;;;;;1.15;86.55;99751.38;5069337;28;20047;-69
2020/12/12 09:48:23;;;;;;;95.13;35.60;;;;;;;1.21;86.40;99747.41;5067926;28;20827;-69
2020/12/12 09:50:48;;;;;;;91.05;34.65;;;;;;;1.17;86.17;99757.34;5069721;28;20036;-69
2020/12/12 09:53:13;;;;;;;99.13;36.33;;;;;;;1.31;85.99;99750.94;5068514;28;20036;-69
2020/12/12 09:55:40;;;;;;;96.40;36.23;;;;;;;1.36;85.79;99746.13;5068499;28;20083;-69
2020/12/12 09:58:08;;;;;;;93.65;36.75;;;;;;;1.27;85.42;99747.72;5061989;28;20044;-69
2020/12/12 10:00:36;;;;;;;86.65;35.42;;;;;;;1.37;85.04;99752.22;5063931;28;20054;-69
2020/12/12 10:03:03;;;;;;;97.15;36.42;;;;;;;1.38;85.39;99754.72;5070040;28;20123;-69
2020/12/12 10:05:29;;;;;;;93.78;35.25;;;;;;;1.35;85.18;99746.25;5071015;28;20135;-70
2020/12/12 10:07:56;;;;;;;98.20;36.45;;;;;;;1.37;85.34;99752.22;5064864;28;20450;-70
2020/12/12 10:10:25;;;;;;;97.32;37.83;;;;;;;1.38;85.06;99753.88;5066071;28;20062;-70
2020/12/12 10:12:51;;;;;;;89.10;35.25;;;;;;;1.33;84.97;99750.81;5070945;28;20049;-69
2020/12/12 10:15:17;;;;;;;90.32;33.47;;;;;;;1.43;85.31;99754.34;5053212;28;20040;-69
2020/12/12 10:17:43;;;;;;;78.00;32.78;;;;;;;1.36;84.92;99753.16;5066552;28;20037;-70
2020/12/12 10:20:08;;;;;;;89.35;36.58;;;;;;;1.36;84.84;99755.78;5049956;28;20110;-70
2020/12/12 10:22:34;;;;;;;88.20;33.37;;;;;;;1.37;84.92;99768.00;5051067;28;20048;-69
2020/12/12 10:24:59;;;;;;;85.53;34.13;;;;;;;1.46;84.81;99762.81;5049952;28;20037;-70
2020/12/12 10:27:24;;;;;;;77.63;31.53;;;;;;;1.47;84.98;99766.25;5051601;28;20094;-70
2020/12/12 10:29:50;;;;;;;81.03;36.00;;;;;;;1.33;85.09;99769.22;5050933;28;20336;-69
2020/12/12 10:32:15;;;;;;;81.00;36.67;;;;;;;1.46;85.17;99761.97;5050364;28;20454;-70
2020/12/12 10:34:40;;;;;;;88.17;34.30;;;;;;;1.51;84.61;99767.69;5050795;28;20521;-69
2020/12/12 10:37:06;;;;;;;83.17;32.00;;;;;;;1.37;85.05;99770.63;5051383;28;20120;-69
2020/12/12 10:39:39;;;;;;;81.90;33.50;;;;;;;1.29;85.88;99776.53;5055885;28;20131;-69
2020/12/12 10:42:05;;;;;;;85.85;35.53;;;;;;;1.33;85.54;99770.03;5089340;28;20043;-69
2020/12/12 10:44:30;;;;;;;78.90;31.23;;;;;;;1.27;85.67;99781.91;5094850;28;20350;-69
2020/12/12 10:46:55;;;;;;;74.73;35.30;;;;;;;1.43;86.13;99770.97;5094539;28;20040;-69
2020/12/12 10:49:21;;;;;;;88.73;37.60;;;;;;;1.30;86.21;99777.38;5084933;28;20032;-69
2020/12/12 10:51:49;;;;;;;93.80;38.60;;;;;;;1.26;86.88;99782.88;5075482;28;20072;-69
2020/12/12 10:54:20;;;;;;;87.75;37.53;;;;;;;1.31;87.04;99779.88;5072830;28;20135;-69
2020/12/12 10:56:47;;;;;;;84.38;37.00;;;;;;;1.49;87.02;99785.38;5056311;28;20032;-69
2020/12/12 10:59:13;;;;;;;86.00;38.63;;;;;;;1.40;86.93;99784.34;5065489;28;20041;-69
2020/12/12 11:01:39;;;;;;;83.50;36.60;;;;;;;1.44;86.78;99780.50;5053175;28;20141;-69
2020/12/12 11:04:05;;;;;;;80.72;36.00;;;;;;;1.50;86.63;99783.59;5073026;28;20134;-69
2020/12/12 11:06:32;;;;;;;88.90;36.38;;;;;;;1.41;86.50;99795.72;5072869;28;20043;-69
2020/12/12 11:08:58;;;;;;;84.35;35.15;;;;;;;1.32;87.24;99796.47;5066237;28;20029;-69
2020/12/12 11:11:23;;;;;;;89.88;36.03;;;;;;;1.40;87.00;99797.50;5064968;28;20454;-70
2020/12/12 11:13:49;;;;;;;81.03;35.93;;;;;;;1.40;87.54;99796.66;5069207;28;20051;-70
2020/12/12 11:16:19;;;;;;;77.47;35.10;;;;;;;1.32;87.48;99799.13;5073545;28;20037;-70
2020/12/12 11:18:48;;;;;;;81.95;34.15;;;;;;;1.34;87.67;99802.47;5072049;28;20036;-70
2020/12/12 11:21:13;;;;;;;85.55;35.60;;;;;;;1.32;87.87;99799.13;5072773;28;20047;-70
2020/12/12 11:23:38;;;;;;;94.13;39.53;;;;;;;1.25;87.68;99796.97;5073023;28;20037;-70
2020/12/12 11:26:04;;;;;;;92.30;38.63;;;;;;;1.31;87.83;99802.69;5073198;28;20369;-70
2020/12/12 11:28:29;;;;;;;92.77;39.73;;;;;;;1.35;87.71;99804.09;5064530;28;20037;-70